Member area
Imprimable
Oostende, 03/10/2015, BEL - Kust Trail Run
List of reports > 14km - Result
Search: Page: [1]
78 Entries
 
Complains are not accepted anymore. Results are final.
Category
PosNrNameAgeNATTeamRealTimeTkmMoy.PlaceNameCity
1.1079CODDENS Kris34BEL50:2750:273:37 16.651seh
2.1028D'HAENE Olivier45BELENERGY TEAM ZUI52:5552:553:47 15.881m40KOEKELARE
3.1039VAN WAEYENBERGHE Yario31BEL55:3755:403:59 15.092seh
4.1042WILLEM Sam26BEL58:2458:304:11 14.363seh
5.1061HEYMAN Frederik43BEL58:2958:334:11 14.352m40
6.1003DE FAUW Brecht25BELBEACHBIKERS58:5158:514:13 14.274sehBRUGGE
7.1072DE BUF Yannick27BEL59:2559:294:15 14.125seh
8.1037VIAENE Johan46BELETZ1:00:111:00:124:18 13.953m40KOEKELARE
9.1005KINS Jeroen28BELTEAM CHAS PATAT1:00:131:00:184:19 13.936sehGELUWE
10.1027FELIERS Eddy47BELBAIK1:00:271:00:284:20 13.894m40TERVUREN
11.1060VANDENBUSSCHE Wim50BEL1:00:321:00:364:20 13.861m50
12.1020FHERTVELDT Heidi40BELHERMESCLUB OOST1:00:441:00:454:21 13.831f40OOSTENDE
13.1040MEESE Laurent46BEL1:00:481:00:504:21 13.815m40
14.1014DEWULF Dirk42BELBANK DELEN1:00:561:00:594:22 13.786m40BRUGGE
15.1073VAN HOOVELS Kevin30BEL1:01:021:01:034:22 13.767seh
16.1023DE MUYNCK Maarten34BEL1:01:011:01:074:22 13.748sehOOSTENDE
17.1077FBRAK Annelies28BEL1:01:071:01:074:22 13.741sef
18.1049PERTZ Werner43BEL1:01:561:02:044:26 13.547m40
19.1026VRANCKEN Jean54BELHCO1:04:541:04:564:39 12.942m50BREDENE
20.1036FDAENEKYNT Isabel47BELSODIBRUG1:05:131:05:204:40 12.862f40BRUGG
21.1062LANDUYT Koen41BEL1:05:221:05:234:41 12.858m40
22.1043SAGAERT Dries27BEL1:07:351:07:354:50 12.439seh
23.1018MAHIEU Wim43BEL1:07:441:07:494:51 12.399m40JABBEKE
24.1045LAPERE Steven39BEL1:07:541:07:584:52 12.3610seh
25.1025JONCKHEERE Patrick60BELHERMES1:08:031:08:054:52 12.341m60OOSTENDE
26.1050JONCKHEERE Eddy48BEL1:08:051:08:064:52 12.3410m40BREDENE
27.1065GIELEN Maarten29BEL1:08:111:08:154:53 12.3111seh
28.1066VANDECASTEELE Pieter37BELVASTGOEDBOX RUN1:08:241:08:274:54 12.2712sehOOSTENDE
29.1044VAN DE WATER Johan41BEL1:08:531:08:544:56 12.1911m40
30.1055VLAMYNCK Hans51BEL1:09:051:09:074:57 12.153m50
31.1064DUPON Thomas30BEL1:09:521:09:545:00 12.0213sehOOSTENDE
32.1029JONCKHEERE Patrick54BELNIHIL1:10:001:10:005:00 12.004m50AARTRIJKE
33.1019DELANGHE Jurgen41BELTEMPO KOEKELARE1:10:311:10:355:03 11.9012m40OUDENBURG
34.1041VANDEPITTE Stijn33BEL1:13:271:13:285:15 11.4414seh
35.1024FJONCKHEERE Eva24BELHERMES1:14:071:14:105:18 11.332sefOOSTENDE
36.1034DECLOEDT Steve37BELTEMPO KOEKELARE1:14:591:15:055:22 11.1915sehWESTKERKE
37.1000DE PETTER Ronny54BELDP KLIMAIR1:15:471:15:475:25 11.085m50WENDUINE
38.1013PYNAERT Yves47BELSQUAIR1:17:131:17:165:32 10.8713m40WAREGEM
39.1056FORDEYN Jochen33BEL1:17:281:17:305:33 10.8416seh
40.1038JANSSENS Andy40BEL12BEAUFORT1:17:291:17:305:33 10.8414m40ZEVEKOTE
41.1030BRACKX Frederik39BEL12BO41:17:291:17:315:33 10.8417sehOOSTENDE
42.1063REGIN Watty34BEL1:17:291:17:315:33 10.8418seh
43.1012VANDEN BROECK Jesse30BELSQUAIR1:19:561:19:565:43 10.5119sehDEERLIJK
44.1046VOLDERS Rudi48BEL1:20:531:20:575:47 10.3815m40BUGGENHOUT
45.1047STEENPUT Thierry42BEL1:20:541:21:015:48 10.3716m40
46.1059DECLERCK Patrick37BEL1:21:461:21:535:51 10.2620seh
47.1017DERUMEAUX Hedwig54BEL1:24:131:24:136:01 9.976m50WEVELGEM
48.1048MAGERMAN Bart23BEL1:24:081:24:156:02 9.9721sehMIDDELKERKE
49.1057DEFRUYT Ronald67BEL1:24:131:24:156:02 9.972m60
50.1009ROMBOUTS Alan35BEL1:25:261:25:356:07 9.8222sehZEMST
51.1074FVANDENBUSSCHE Ann44BEL1:26:311:26:356:12 9.703f40
52.1053DESCAMPS Xavier49BEL1:26:331:26:396:12 9.7017m40NIMY
53.1054VAN WINGENE Dennie26BEL1:26:391:26:426:12 9.6923seh
54.1031LEJAEGHERE Tomas39BEL1:28:291:28:356:20 9.4824sehGENT
55.1021ADAM Bob60BEL1:28:511:28:516:21 9.463m60AARTRIJKE
56.1070FLESTAEGHE Linda41BEL1:28:491:28:526:21 9.454f40
57.1010FDEWULF Inge45BELBANK DELEN1:29:111:29:166:23 9.415f40BRUGGE
58.1058VAN LIERDE Daniel49BELYES PLATTEKEIS1:29:351:29:416:25 9.3718m40IDDERGEM
59.1022FVERPLANCKE Liesbeth34BEL1:32:191:32:286:37 9.093sefOUDENBURG
60.1033FLEUWERS Carine43BEL1:32:321:32:326:37 9.086f40RENINGE
61.1035VAN PEE Johan47BELGISTELSE JOGGIN1:32:311:32:326:37 9.0819m40WESTENDE
62.1071VANWELSSENAENS Zhinny16BEL1:39:011:39:047:05 8.4825seh
63.1068BOUKQUER Quillaume20BEL1:38:581:39:047:05 8.4826seh
64.1069FJONCKHEERE Julie19BEL1:39:001:39:047:05 8.484sef
65.1075FCHRISTIAENS Aisling38BEL1:41:101:41:147:14 8.305sef
66.1067VAN MAELE Dirk60BELJOGGING CLUB BR1:44:351:44:397:29 8.034m60ASSEBROEK
67.1051FBUSSELOT Klaartje29BEL1:45:261:45:277:32 7.976sef
68.1052BRUSSELOT Dries32BEL1:45:221:45:277:32 7.9727seh
69.1008FBUTS Caroline En Clooney32BEL1:51:481:51:578:00 7.507sefSCHAARBEEK
70.1007FWAUTERS Birgit30BEL1:51:531:51:588:00 7.508sefDENDERLEEUW
71.1006FHULSBOSCH Nicole51NLD1:58:011:58:038:26 7.121f50BREDA
72.1004FNEVEJAN Emilie56NLD1:58:011:58:038:26 7.122f50BREDA
DSQ1078NA NaBEL56:1456:15xxx
DNF1015FBRAK Annelies28BELSEFBREDENE
DNF1011NORRO Peter51BELBANK DELENM50BLANKENBERGE
DNF1076NR1076 Nr1076BELXXX
DNF1001PENET Davy33BELSEHWERVIK
DNF1032VERLEYE Nathan45BELM40LOMBARDSIJDE
DNF: did not finish; DSQ: disqualified; Speed in km/h
Page: [1]